createdAt,value
2022-10-04T00:02:45.160Z,0.70
2022-10-04T00:07:52.290Z,1.00
2022-10-04T00:13:00.191Z,0.90
2022-10-04T00:18:20.987Z,0.80
2022-10-04T00:23:30.745Z,0.77
2022-10-04T00:28:46.478Z,0.67
2022-10-04T00:33:54.336Z,0.90
2022-10-04T00:39:05.496Z,0.90
2022-10-04T00:44:19.310Z,0.80
2022-10-04T00:49:27.647Z,0.90
2022-10-04T00:54:35.745Z,0.70
2022-10-04T00:59:41.720Z,0.80
2022-10-04T01:04:52.283Z,0.77
2022-10-04T01:10:00.855Z,0.97
2022-10-04T01:15:08.825Z,1.10
2022-10-04T01:20:32.279Z,0.70
2022-10-04T01:25:48.973Z,0.70
2022-10-04T01:30:52.950Z,0.70
2022-10-04T01:35:56.704Z,1.00
2022-10-04T01:41:04.822Z,1.00
2022-10-04T01:46:12.050Z,0.70
2022-10-04T01:51:20.950Z,0.80
2022-10-04T01:56:28.614Z,0.60
2022-10-04T02:01:36.901Z,0.70
2022-10-04T02:06:43.130Z,1.10
2022-10-04T02:11:53.044Z,1.03
2022-10-04T02:16:56.749Z,0.90
2022-10-04T02:22:02.181Z,0.70
2022-10-04T02:27:07.221Z,0.63
2022-10-04T02:32:29.150Z,0.60
2022-10-04T02:37:33.529Z,0.70
2022-10-04T02:42:43.191Z,0.70
2022-10-04T02:47:52.414Z,0.70
2022-10-04T02:52:59.549Z,0.60
2022-10-04T02:58:11.245Z,1.00
2022-10-04T03:03:20.337Z,0.60
2022-10-04T03:08:25.467Z,0.63
2022-10-04T03:13:30.325Z,0.70
2022-10-04T03:18:36.221Z,0.60
2022-10-04T03:23:40.718Z,0.50
2022-10-04T03:28:46.158Z,0.60
2022-10-04T03:33:50.440Z,0.60
2022-10-04T03:38:56.402Z,0.50
2022-10-04T03:44:05.037Z,0.50
2022-10-04T03:49:09.941Z,0.60
2022-10-04T03:54:19.961Z,0.70
2022-10-04T03:59:27.424Z,0.70
2022-10-04T04:04:42.039Z,0.80
2022-10-04T04:09:48.419Z,0.50
2022-10-04T04:14:54.287Z,0.50
2022-10-04T04:20:03.590Z,0.63
2022-10-04T04:25:16.965Z,0.50
2022-10-04T04:30:21.888Z,0.60
2022-10-04T04:35:31.259Z,0.53
2022-10-04T04:40:35.103Z,0.70
2022-10-04T04:45:40.012Z,0.60
2022-10-04T04:50:49.086Z,0.70
2022-10-04T04:56:03.819Z,0.60
2022-10-04T05:01:20.956Z,0.77
2022-10-04T05:06:27.725Z,0.60
2022-10-04T05:11:34.003Z,0.60
2022-10-04T05:16:43.227Z,0.53
2022-10-04T05:21:48.467Z,0.50
2022-10-04T05:26:56.078Z,0.70
2022-10-04T05:32:14.529Z,0.70
2022-10-04T05:37:31.517Z,0.70
2022-10-04T05:42:41.462Z,0.70
2022-10-04T05:47:47.852Z,0.57
2022-10-04T05:52:53.254Z,0.90
2022-10-04T05:58:28.363Z,0.70
2022-10-04T06:03:52.451Z,0.80
2022-10-04T06:09:10.264Z,0.77
2022-10-04T06:14:48.945Z,1.00
2022-10-04T06:20:10.106Z,1.60
2022-10-04T06:25:20.189Z,1.20
2022-10-04T06:30:24.483Z,1.20
2022-10-04T06:35:57.378Z,1.23
2022-10-04T06:41:22.524Z,1.00
2022-10-04T06:46:32.555Z,0.90
2022-10-04T06:51:49.739Z,0.90
2022-10-04T06:57:14.743Z,1.03
2022-10-04T07:02:23.138Z,1.10
2022-10-04T07:07:36.786Z,0.90
2022-10-04T07:12:44.524Z,0.90
2022-10-04T07:17:50.449Z,1.10
2022-10-04T07:22:59.558Z,0.90
2022-10-04T07:28:41.934Z,1.07
2022-10-04T07:33:49.928Z,1.70
2022-10-04T07:39:00.226Z,1.97
2022-10-04T07:44:13.803Z,1.40
2022-10-04T07:49:18.956Z,1.60
2022-10-04T07:54:32.910Z,1.80
2022-10-04T07:59:48.262Z,1.50
2022-10-04T08:04:58.837Z,1.40
2022-10-04T08:10:09.282Z,1.00
2022-10-04T08:15:36.422Z,1.20
2022-10-04T08:20:48.992Z,0.97
2022-10-04T08:26:05.464Z,1.30
2022-10-04T08:31:21.413Z,1.27
2022-10-04T08:36:42.496Z,1.77
2022-10-04T08:42:23.386Z,1.20
2022-10-04T08:48:18.210Z,1.30
2022-10-04T08:53:53.593Z,1.57
2022-10-04T08:59:19.015Z,1.00
2022-10-04T09:05:02.406Z,1.40
2022-10-04T09:10:31.471Z,1.63
2022-10-04T09:15:54.420Z,1.30
2022-10-04T09:21:01.140Z,1.20
2022-10-04T09:26:20.959Z,1.20
2022-10-04T09:31:52.760Z,1.10
2022-10-04T09:37:18.762Z,1.90
2022-10-04T09:42:36.879Z,1.53
2022-10-04T09:47:49.021Z,1.17
2022-10-04T09:52:59.987Z,1.40
2022-10-04T09:58:29.318Z,1.77
2022-10-04T10:04:04.936Z,1.20
2022-10-04T10:09:19.964Z,2.20
2022-10-04T10:14:43.059Z,1.47
2022-10-04T10:20:11.759Z,1.30
2022-10-04T10:25:34.526Z,1.10
2022-10-04T10:30:50.286Z,1.00
2022-10-04T10:36:24.574Z,1.00
2022-10-04T10:42:06.259Z,1.50
2022-10-04T10:47:24.950Z,1.47
2022-10-04T10:53:09.090Z,1.77
2022-10-04T10:59:13.502Z,1.60
2022-10-04T11:04:39.009Z,1.00
2022-10-04T11:10:20.651Z,1.63
2022-10-04T11:16:07.804Z,1.57
2022-10-04T11:21:51.620Z,1.73
2022-10-04T11:27:19.041Z,1.40
2022-10-04T11:32:59.528Z,1.20
2022-10-04T11:38:13.994Z,1.03
2022-10-04T11:43:58.423Z,1.27
2022-10-04T11:49:18.401Z,1.40
2022-10-04T11:54:58.601Z,1.63
2022-10-04T12:00:12.405Z,1.33
2022-10-04T12:05:34.134Z,1.20
2022-10-04T12:10:40.475Z,1.03
2022-10-04T12:16:16.746Z,1.43
2022-10-04T12:21:38.897Z,1.40
2022-10-04T12:27:11.625Z,1.13
2022-10-04T12:32:19.095Z,1.23
2022-10-04T12:37:30.875Z,1.00
2022-10-04T12:42:43.470Z,1.27
2022-10-04T12:48:11.221Z,0.90
2022-10-04T12:53:23.784Z,1.23
2022-10-04T12:58:34.902Z,1.00
2022-10-04T13:04:00.128Z,0.90
2022-10-04T13:09:10.829Z,1.53
2022-10-04T13:14:40.129Z,1.33
2022-10-04T13:19:53.907Z,1.10
2022-10-04T13:25:14.468Z,1.10
2022-10-04T13:30:24.374Z,1.37
2022-10-04T13:35:36.755Z,1.17
2022-10-04T13:41:00.542Z,1.07
2022-10-04T13:46:19.932Z,1.00
2022-10-04T13:52:15.475Z,1.20
2022-10-04T13:57:28.224Z,1.30
2022-10-04T14:03:13.705Z,1.30
2022-10-04T14:08:49.752Z,1.00
2022-10-04T14:14:22.125Z,1.30
2022-10-04T14:19:58.251Z,1.10
2022-10-04T14:25:43.556Z,1.10
2022-10-04T14:31:08.359Z,0.90
2022-10-04T14:36:40.979Z,1.13
2022-10-04T14:42:07.019Z,0.80
2022-10-04T14:47:22.645Z,1.40
2022-10-04T14:52:39.021Z,1.20
2022-10-04T14:58:06.340Z,1.40
2022-10-04T15:03:30.771Z,1.20
2022-10-04T15:08:57.498Z,1.33
2022-10-04T15:14:05.505Z,1.27
2022-10-04T15:19:24.391Z,1.00
2022-10-04T15:24:31.495Z,1.10
2022-10-04T15:29:42.920Z,0.90
2022-10-04T15:34:57.559Z,0.97
2022-10-04T15:40:34.011Z,0.90
2022-10-04T15:46:03.714Z,0.80
2022-10-04T15:51:18.247Z,0.80
2022-10-04T15:56:36.399Z,0.50
2022-10-04T16:02:00.656Z,0.73
2022-10-04T16:07:32.411Z,0.60
2022-10-04T16:13:14.147Z,0.60
2022-10-04T16:18:40.410Z,0.60
2022-10-04T16:23:45.659Z,0.90
2022-10-04T16:29:04.508Z,0.50
2022-10-04T16:34:34.357Z,0.57
2022-10-04T16:40:03.554Z,0.40
2022-10-04T16:45:33.380Z,0.57
2022-10-04T16:51:13.057Z,0.60
2022-10-04T16:56:20.863Z,0.60
2022-10-04T17:02:07.786Z,0.50
2022-10-04T17:07:23.168Z,0.60
2022-10-04T17:12:36.832Z,0.50
2022-10-04T17:17:47.145Z,0.50
2022-10-04T17:23:03.677Z,0.63
2022-10-04T17:28:26.119Z,0.63
2022-10-04T17:33:43.655Z,0.57
2022-10-04T17:38:56.960Z,0.57
2022-10-04T17:44:21.658Z,0.57
2022-10-04T17:49:52.660Z,0.43
2022-10-04T17:55:18.515Z,0.40
2022-10-04T18:00:26.686Z,0.57
2022-10-04T18:05:36.895Z,0.70
2022-10-04T18:10:51.333Z,0.67
2022-10-04T18:16:02.959Z,0.50
2022-10-04T18:21:19.320Z,0.70
2022-10-04T18:26:24.746Z,0.67
2022-10-04T18:31:35.916Z,0.77
2022-10-04T18:36:54.246Z,0.80
2022-10-04T18:42:08.636Z,0.80
2022-10-04T18:47:21.262Z,0.70
2022-10-04T18:52:35.275Z,0.50
2022-10-04T18:57:56.381Z,0.67
2022-10-04T19:03:08.999Z,0.57
2022-10-04T19:08:29.079Z,0.80
2022-10-04T19:13:40.807Z,0.60
2022-10-04T19:19:17.095Z,0.70
2022-10-04T19:24:48.587Z,0.60
2022-10-04T19:30:04.447Z,0.50
2022-10-04T19:35:19.998Z,0.70
2022-10-04T19:40:34.478Z,0.47
2022-10-04T19:45:48.127Z,0.80
2022-10-04T19:50:55.899Z,0.97
2022-10-04T19:56:01.983Z,0.80
2022-10-04T20:01:12.552Z,0.70
2022-10-04T20:06:22.535Z,0.67
2022-10-04T20:11:48.368Z,0.80
2022-10-04T20:17:04.979Z,0.73
2022-10-04T20:22:52.051Z,0.87
2022-10-04T20:28:03.754Z,0.50
2022-10-04T20:33:07.404Z,0.60
2022-10-04T20:38:32.153Z,0.50
2022-10-04T20:43:54.720Z,0.50
2022-10-04T20:48:58.861Z,0.57
2022-10-04T20:54:03.329Z,0.50
2022-10-04T20:59:16.598Z,0.73
2022-10-04T21:04:29.822Z,0.50
2022-10-04T21:09:34.690Z,0.60
2022-10-04T21:14:39.629Z,0.80
2022-10-04T21:19:46.614Z,0.90
2022-10-04T21:24:55.791Z,0.70
2022-10-04T21:30:02.133Z,0.80
2022-10-04T21:35:07.436Z,0.80
2022-10-04T21:40:11.671Z,0.90
2022-10-04T21:45:16.754Z,1.10
2022-10-04T21:50:20.234Z,0.90
2022-10-04T21:55:23.826Z,0.90
2022-10-04T22:00:28.913Z,0.90
2022-10-04T22:05:32.471Z,0.90
2022-10-04T22:10:36.070Z,0.83
2022-10-04T22:15:40.928Z,1.00
2022-10-04T22:20:44.436Z,0.60
2022-10-04T22:25:47.988Z,0.70
2022-10-04T22:30:55.657Z,0.77
2022-10-04T22:36:01.072Z,0.63
2022-10-04T22:41:10.071Z,0.63
2022-10-04T22:46:18.484Z,0.70
2022-10-04T22:51:22.024Z,0.63
2022-10-04T22:56:26.372Z,0.60
2022-10-04T23:01:32.469Z,0.70
2022-10-04T23:06:35.964Z,0.60
2022-10-04T23:11:39.447Z,0.60
2022-10-04T23:16:44.773Z,0.70
2022-10-04T23:21:50.485Z,0.60
2022-10-04T23:26:57.214Z,0.73
2022-10-04T23:32:09.814Z,0.50
2022-10-04T23:37:17.087Z,0.60
2022-10-04T23:42:25.203Z,0.60
2022-10-04T23:47:33.692Z,0.70
2022-10-04T23:52:39.672Z,0.60
2022-10-04T23:57:43.279Z,0.60
